Time;durP1;ratioP1;P1;durP2;ratioP2;P2;SDS_P1;SDS_P2;PMS_P1;PMS_P2;Temp;Humidity;BMP_temperature;BMP_pressure;BME280_temperature;BME280_humidity;BME280_pressure;Samples;Min_cycle;Max_cycle;Signal;HPM_P1;HPM_P2
2023/11/21 00:01:36;;;;;;;3.50;1.00;;;8.90;99.90;;;;;;5068245;28;20195;-68
2023/11/21 00:04:03;;;;;;;5.10;1.60;;;8.90;99.90;;;;;;5071800;28;20247;-68
2023/11/21 00:06:30;;;;;;;3.23;1.73;;;8.90;99.90;;;;;;5071827;28;20199;-68
2023/11/21 00:08:58;;;;;;;1.43;1.33;;;8.90;99.90;;;;;;5073744;28;20580;-68
2023/11/21 00:11:26;;;;;;;3.20;1.53;;;8.90;99.90;;;;;;5069438;28;20203;-68
2023/11/21 00:13:53;;;;;;;5.30;1.60;;;8.80;99.90;;;;;;5059548;28;20723;-68
2023/11/21 00:16:20;;;;;;;3.23;1.33;;;8.70;99.90;;;;;;5058753;28;20233;-68
2023/11/21 00:18:47;;;;;;;1.67;1.20;;;8.70;99.90;;;;;;5071286;28;20203;-68
2023/11/21 00:21:14;;;;;;;5.40;1.30;;;8.70;99.90;;;;;;5071115;28;20242;-68
2023/11/21 00:23:41;;;;;;;3.70;1.37;;;8.70;99.90;;;;;;5060369;28;20265;-68
2023/11/21 00:26:09;;;;;;;4.00;1.33;;;8.60;99.90;;;;;;5059664;28;20200;-68
2023/11/21 00:28:36;;;;;;;3.80;1.10;;;8.60;99.90;;;;;;5054509;28;20262;-68
2023/11/21 00:31:04;;;;;;;3.63;1.90;;;8.60;99.90;;;;;;5051981;28;20618;-68
2023/11/21 00:33:31;;;;;;;3.10;1.10;;;8.50;99.90;;;;;;5054635;28;20252;-68
2023/11/21 00:35:57;;;;;;;3.83;1.23;;;8.50;99.90;;;;;;5060484;28;20207;-68
2023/11/21 00:38:24;;;;;;;1.30;0.90;;;8.50;99.90;;;;;;5064382;28;20262;-68
2023/11/21 00:40:52;;;;;;;3.80;1.37;;;8.50;99.90;;;;;;5067666;28;20641;-68
2023/11/21 00:43:21;;;;;;;1.60;1.50;;;8.40;99.90;;;;;;5059875;28;20219;-68
2023/11/21 00:45:49;;;;;;;5.33;1.70;;;8.40;99.90;;;;;;5051211;28;20262;-68
2023/11/21 00:48:16;;;;;;;3.60;2.07;;;8.40;99.90;;;;;;5056649;28;20741;-68
2023/11/21 00:50:43;;;;;;;1.40;1.20;;;8.40;99.90;;;;;;5061642;28;20203;-68
2023/11/21 00:53:10;;;;;;;2.60;1.30;;;8.40;99.90;;;;;;5068481;28;20312;-68
2023/11/21 00:55:39;;;;;;;3.00;2.13;;;8.30;99.90;;;;;;5071279;28;20226;-68
2023/11/21 00:58:06;;;;;;;5.17;1.43;;;8.30;99.90;;;;;;5071471;28;20215;-68
2023/11/21 01:00:35;;;;;;;3.23;1.47;;;8.30;99.90;;;;;;5070182;28;20390;-68
2023/11/21 01:03:02;;;;;;;3.03;2.23;;;8.20;99.90;;;;;;5058753;28;20285;-68
2023/11/21 01:05:29;;;;;;;2.77;1.70;;;8.20;99.90;;;;;;5059568;28;20203;-68
2023/11/21 01:07:56;;;;;;;2.97;1.97;;;8.20;99.90;;;;;;5071691;28;20207;-68
2023/11/21 01:10:24;;;;;;;3.67;2.10;;;8.20;99.90;;;;;;5070729;28;20211;-68
2023/11/21 01:12:51;;;;;;;2.67;2.20;;;8.10;99.90;;;;;;5060441;28;20227;-68
2023/11/21 01:15:18;;;;;;;2.40;1.60;;;8.10;99.90;;;;;;5065105;28;20683;-68
2023/11/21 01:17:47;;;;;;;1.73;1.63;;;8.00;99.90;;;;;;5071249;28;20257;-68
2023/11/21 01:20:14;;;;;;;2.40;1.77;;;8.00;99.90;;;;;;5069399;28;20209;-68
2023/11/21 01:22:41;;;;;;;3.90;2.43;;;8.00;99.90;;;;;;5070508;28;20219;-68
2023/11/21 01:25:08;;;;;;;2.77;1.53;;;8.20;99.90;;;;;;5071208;28;20189;-68
2023/11/21 01:27:35;;;;;;;2.80;1.40;;;7.90;99.90;;;;;;5065344;28;20299;-68
2023/11/21 01:30:03;;;;;;;1.37;1.27;;;7.90;99.90;;;;;;5074980;28;20199;-68
2023/11/21 01:32:29;;;;;;;5.40;1.57;;;7.90;99.90;;;;;;5074114;28;20230;-68
2023/11/21 01:34:58;;;;;;;3.00;1.87;;;7.90;99.90;;;;;;5073911;28;20222;-68
2023/11/21 01:37:27;;;;;;;2.13;1.90;;;7.90;99.90;;;;;;5074753;28;20758;-68
2023/11/21 01:39:54;;;;;;;4.97;1.67;;;7.90;99.90;;;;;;5071810;28;20273;-68
2023/11/21 01:42:21;;;;;;;2.50;1.50;;;7.90;99.90;;;;;;5072511;28;20688;-68
2023/11/21 01:44:48;;;;;;;2.23;1.53;;;7.90;99.90;;;;;;5073248;28;20202;-68
2023/11/21 01:47:16;;;;;;;1.87;1.63;;;8.00;99.90;;;;;;5073564;28;20205;-68
2023/11/21 01:49:46;;;;;;;8.63;2.13;;;8.00;99.90;;;;;;5071161;28;20206;-68
2023/11/21 01:52:14;;;;;;;2.03;1.50;;;8.10;99.90;;;;;;5073130;28;20243;-68
2023/11/21 01:54:42;;;;;;;2.40;1.70;;;8.20;99.90;;;;;;5074779;28;20234;-68
2023/11/21 01:57:09;;;;;;;3.00;1.97;;;8.10;99.90;;;;;;5072849;28;20265;-68
2023/11/21 01:59:38;;;;;;;2.90;1.73;;;8.10;99.90;;;;;;5073079;28;20241;-68
2023/11/21 02:02:06;;;;;;;2.00;1.57;;;8.00;99.90;;;;;;5072163;28;20696;-68
2023/11/21 02:04:33;;;;;;;3.27;1.90;;;8.00;99.90;;;;;;5073302;28;20223;-68
2023/11/21 02:07:00;;;;;;;5.77;2.13;;;7.90;99.90;;;;;;5073437;28;20244;-68
2023/11/21 02:09:30;;;;;;;3.43;1.50;;;8.00;99.90;;;;;;5073382;28;20258;-67
2023/11/21 02:11:58;;;;;;;3.90;1.10;;;8.10;99.90;;;;;;5066387;28;20231;-67
2023/11/21 02:14:26;;;;;;;2.93;1.30;;;8.10;99.90;;;;;;5073760;28;20227;-68
2023/11/21 02:16:53;;;;;;;2.07;0.90;;;8.00;99.90;;;;;;5071380;28;20211;-68
2023/11/21 02:19:22;;;;;;;5.57;1.23;;;8.00;99.90;;;;;;5073404;28;20260;-68
2023/11/21 02:21:51;;;;;;;3.03;1.17;;;8.00;99.90;;;;;;5072900;28;20225;-68
2023/11/21 02:24:21;;;;;;;1.60;1.30;;;8.00;99.90;;;;;;5070940;28;20216;-67
2023/11/21 02:26:48;;;;;;;2.63;1.23;;;8.00;99.90;;;;;;5073405;28;20206;-67
2023/11/21 02:29:18;;;;;;;2.03;0.90;;;8.00;99.90;;;;;;5071759;28;20675;-68
2023/11/21 02:31:48;;;;;;;4.10;2.03;;;8.00;99.90;;;;;;5072150;28;20290;-68
2023/11/21 02:34:15;;;;;;;4.90;1.33;;;8.10;99.90;;;;;;5072227;28;20231;-68
2023/11/21 02:36:43;;;;;;;3.33;0.70;;;8.10;99.90;;;;;;5072830;28;20273;-68
2023/11/21 02:39:10;;;;;;;5.00;0.70;;;8.20;99.90;;;;;;5072644;28;20195;-68
2023/11/21 02:41:39;;;;;;;1.47;0.70;;;8.10;99.90;;;;;;5070790;28;20663;-68
2023/11/21 02:44:07;;;;;;;1.83;0.70;;;8.10;99.90;;;;;;5073367;28;20250;-68
2023/11/21 02:46:36;;;;;;;3.40;0.83;;;8.10;99.90;;;;;;5072188;28;20243;-67
2023/11/21 02:49:03;;;;;;;4.33;1.10;;;8.00;99.90;;;;;;5071451;28;20658;-68
2023/11/21 02:51:31;;;;;;;5.27;0.80;;;8.00;99.90;;;;;;5073272;28;20207;-68
2023/11/21 02:54:00;;;;;;;5.33;1.70;;;8.00;99.90;;;;;;5071571;28;20215;-68
2023/11/21 02:56:27;;;;;;;4.07;1.40;;;8.00;99.90;;;;;;5072494;28;20199;-68
2023/11/21 02:58:57;;;;;;;1.83;1.37;;;8.00;99.90;;;;;;5073249;28;20260;-68
2023/11/21 03:01:24;;;;;;;1.40;1.30;;;8.00;99.90;;;;;;5071763;28;20286;-68
2023/11/21 03:03:52;;;;;;;4.70;1.50;;;7.90;99.90;;;;;;5072932;28;20236;-68
2023/11/21 03:06:19;;;;;;;6.83;2.30;;;7.90;99.90;;;;;;5070012;28;20234;-68
2023/11/21 03:08:46;;;;;;;3.53;1.70;;;8.00;99.90;;;;;;5062258;28;20629;-68
2023/11/21 03:11:14;;;;;;;2.07;1.73;;;8.00;99.90;;;;;;5073215;28;20200;-68
2023/11/21 03:13:42;;;;;;;2.77;2.43;;;8.00;99.90;;;;;;5072748;28;20698;-68
2023/11/21 03:16:11;;;;;;;4.07;3.20;;;8.00;99.90;;;;;;5066996;28;20680;-68
2023/11/21 03:18:38;;;;;;;3.90;2.37;;;8.00;99.90;;;;;;5063954;28;20205;-68
2023/11/21 03:21:05;;;;;;;2.30;2.10;;;8.00;99.90;;;;;;5061183;28;20717;-68
2023/11/21 03:23:32;;;;;;;2.80;1.70;;;8.00;99.90;;;;;;5067722;28;20255;-67
2023/11/21 03:25:59;;;;;;;3.07;1.43;;;7.90;99.90;;;;;;5067672;28;20737;-68
2023/11/21 03:28:27;;;;;;;2.70;2.50;;;7.90;99.90;;;;;;5060292;28;20557;-68
2023/11/21 03:30:54;;;;;;;1.73;1.60;;;7.90;99.90;;;;;;5066726;28;20205;-68
2023/11/21 03:33:23;;;;;;;3.07;2.10;;;7.90;99.90;;;;;;5067544;28;20231;-68
2023/11/21 03:35:50;;;;;;;2.70;1.97;;;7.90;99.90;;;;;;5072139;28;20214;-68
2023/11/21 03:38:17;;;;;;;3.33;1.80;;;7.90;99.90;;;;;;5072594;28;20199;-68
2023/11/21 03:40:44;;;;;;;5.43;2.30;;;7.90;99.90;;;;;;5070834;28;20262;-68
2023/11/21 03:43:10;;;;;;;2.20;1.17;;;7.90;99.90;;;;;;5072137;28;20220;-68
2023/11/21 03:45:40;;;;;;;3.07;2.17;;;7.90;99.90;;;;;;5071022;28;20661;-68
2023/11/21 03:48:07;;;;;;;2.43;2.07;;;7.90;99.90;;;;;;5072348;28;20258;-68
2023/11/21 03:50:35;;;;;;;1.87;1.57;;;8.00;99.90;;;;;;5070936;28;20197;-68
2023/11/21 03:53:03;;;;;;;4.80;3.23;;;8.00;99.90;;;;;;5060725;28;20275;-68
2023/11/21 03:55:31;;;;;;;1.93;1.80;;;8.00;99.90;;;;;;5071450;28;20302;-68
2023/11/21 03:57:58;;;;;;;2.77;2.00;;;7.90;99.90;;;;;;5070255;28;20651;-68
2023/11/21 04:00:26;;;;;;;6.10;2.20;;;7.90;99.90;;;;;;5069983;28;20265;-68
2023/11/21 04:02:53;;;;;;;4.63;2.47;;;7.90;99.90;;;;;;5070241;28;20224;-68
2023/11/21 04:05:22;;;;;;;2.30;1.90;;;7.90;99.90;;;;;;5070304;28;20196;-68
2023/11/21 04:07:51;;;;;;;3.37;1.47;;;7.90;99.90;;;;;;5069779;28;20227;-68
2023/11/21 04:10:18;;;;;;;2.67;1.53;;;7.90;99.90;;;;;;5072075;28;20204;-67
2023/11/21 04:12:46;;;;;;;1.67;1.40;;;7.90;99.90;;;;;;5070223;28;20215;-68
2023/11/21 04:15:14;;;;;;;5.53;2.00;;;7.90;99.90;;;;;;5069581;28;20328;-68
2023/11/21 04:17:41;;;;;;;2.13;1.40;;;7.90;99.90;;;;;;5069870;28;20212;-68
2023/11/21 04:20:09;;;;;;;5.97;1.83;;;7.90;99.90;;;;;;5071348;28;20245;-68
2023/11/21 04:22:40;;;;;;;1.77;1.50;;;7.80;99.90;;;;;;5070346;28;20258;-69
2023/11/21 04:25:10;;;;;;;3.67;1.40;;;7.90;99.90;;;;;;5069379;28;20195;-68
2023/11/21 04:27:37;;;;;;;3.77;1.40;;;7.90;99.90;;;;;;5071048;28;20203;-68
2023/11/21 04:30:05;;;;;;;3.70;1.37;;;7.80;99.90;;;;;;5070237;28;20197;-68
2023/11/21 04:32:32;;;;;;;4.53;1.87;;;7.80;99.90;;;;;;5070574;28;20234;-68
2023/11/21 04:34:59;;;;;;;1.63;1.37;;;7.80;99.90;;;;;;5069350;28;20599;-68
2023/11/21 04:37:25;;;;;;;2.63;1.10;;;7.70;99.90;;;;;;5070745;28;20251;-68
2023/11/21 04:39:52;;;;;;;2.40;1.47;;;7.80;99.90;;;;;;5069812;28;20448;-68
2023/11/21 04:42:21;;;;;;;3.10;2.37;;;7.80;99.90;;;;;;5069771;28;20198;-68
2023/11/21 04:44:49;;;;;;;5.80;3.23;;;7.80;99.90;;;;;;5071928;28;20284;-68
2023/11/21 04:47:19;;;;;;;3.53;1.63;;;7.80;99.90;;;;;;5071372;28;20253;-68
2023/11/21 04:49:48;;;;;;;5.93;3.83;;;7.80;99.90;;;;;;5070733;28;20281;-68
2023/11/21 04:52:14;;;;;;;9.17;5.27;;;7.90;99.90;;;;;;5073368;28;20195;-68
2023/11/21 04:54:42;;;;;;;13.03;4.63;;;7.90;99.90;;;;;;5076640;28;20238;-68
2023/11/21 04:57:09;;;;;;;14.23;6.57;;;7.90;99.90;;;;;;5079053;28;20199;-68
2023/11/21 04:59:38;;;;;;;16.67;7.23;;;7.90;99.90;;;;;;5076105;28;20193;-68
2023/11/21 05:02:05;;;;;;;17.03;6.80;;;7.90;99.90;;;;;;5077936;28;20195;-68
2023/11/21 05:04:32;;;;;;;12.37;5.80;;;7.90;99.90;;;;;;5079325;28;20220;-68
2023/11/21 05:07:00;;;;;;;11.77;5.43;;;7.90;99.90;;;;;;5077880;28;20713;-68
2023/11/21 05:09:28;;;;;;;8.40;3.30;;;7.90;99.90;;;;;;5073422;28;20258;-68
2023/11/21 05:11:55;;;;;;;4.40;1.90;;;7.90;99.90;;;;;;5076306;28;20203;-68
2023/11/21 05:14:22;;;;;;;5.83;1.90;;;7.90;99.90;;;;;;5079174;28;20742;-68
2023/11/21 05:16:51;;;;;;;3.23;0.73;;;7.90;99.90;;;;;;5063760;28;20200;-68
2023/11/21 05:19:18;;;;;;;2.73;1.00;;;8.00;99.90;;;;;;5061937;28;20290;-68
2023/11/21 05:21:47;;;;;;;2.23;0.83;;;7.90;99.90;;;;;;5078731;28;20199;-68
2023/11/21 05:24:14;;;;;;;2.40;1.20;;;7.90;99.90;;;;;;5073804;28;20229;-68
2023/11/21 05:26:41;;;;;;;1.47;0.90;;;7.90;99.90;;;;;;5069231;28;20215;-68
2023/11/21 05:29:08;;;;;;;2.57;0.70;;;7.90;99.90;;;;;;5061400;28;20199;-68
2023/11/21 05:31:36;;;;;;;1.47;0.80;;;7.90;99.90;;;;;;5079714;28;20204;-68
2023/11/21 05:34:05;;;;;;;3.53;0.87;;;7.90;99.90;;;;;;5074270;28;20227;-68
2023/11/21 05:36:32;;;;;;;2.80;0.93;;;7.80;99.90;;;;;;5076430;28;20217;-68
2023/11/21 05:38:59;;;;;;;3.07;0.77;;;7.80;99.90;;;;;;5072814;28;20697;-68
2023/11/21 05:41:26;;;;;;;4.47;1.00;;;7.70;99.90;;;;;;5070733;28;20254;-68
2023/11/21 05:43:54;;;;;;;4.07;1.30;;;7.70;99.90;;;;;;5069649;28;20220;-68
2023/11/21 05:46:21;;;;;;;1.47;0.97;;;7.80;99.90;;;;;;5070778;28;20200;-68
2023/11/21 05:48:48;;;;;;;0.97;0.80;;;7.80;99.90;;;;;;5067761;28;20271;-68
2023/11/21 05:51:17;;;;;;;5.47;1.30;;;7.80;99.90;;;;;;5067068;28;20204;-67
2023/11/21 05:53:44;;;;;;;4.33;1.63;;;7.70;99.90;;;;;;5070391;28;20243;-68
2023/11/21 05:56:11;;;;;;;2.23;0.80;;;7.70;99.90;;;;;;5064365;28;20213;-68
2023/11/21 05:58:38;;;;;;;3.13;0.80;;;7.70;99.90;;;;;;5066366;28;20264;-67
2023/11/21 06:01:07;;;;;;;2.20;1.40;;;7.60;99.90;;;;;;5072773;28;20578;-67
2023/11/21 06:03:34;;;;;;;4.20;1.43;;;7.60;99.90;;;;;;5071482;28;20258;-68
2023/11/21 06:06:01;;;;;;;1.80;1.67;;;7.60;99.90;;;;;;5060272;28;20667;-67
2023/11/21 06:08:29;;;;;;;4.60;1.73;;;7.60;99.90;;;;;;5061894;28;20261;-68
2023/11/21 06:10:56;;;;;;;4.73;2.27;;;7.60;99.90;;;;;;5067543;28;20265;-67
2023/11/21 06:13:24;;;;;;;0.90;0.90;;;7.60;99.90;;;;;;5071296;28;20219;-68
2023/11/21 06:15:51;;;;;;;5.30;1.20;;;7.60;99.90;;;;;;5076055;28;20222;-68
2023/11/21 06:18:19;;;;;;;4.40;1.03;;;7.60;99.90;;;;;;5073602;28;20225;-68
2023/11/21 06:20:46;;;;;;;7.13;1.50;;;7.60;99.90;;;;;;5063877;28;20234;-68
2023/11/21 06:23:13;;;;;;;4.67;1.20;;;7.60;99.90;;;;;;5059447;28;20274;-68
2023/11/21 06:25:42;;;;;;;4.47;1.53;;;7.60;99.90;;;;;;5066290;28;20194;-68
2023/11/21 06:28:09;;;;;;;4.90;1.43;;;7.60;99.90;;;;;;5071823;28;20207;-68
2023/11/21 06:30:36;;;;;;;2.93;1.77;;;7.60;99.90;;;;;;5068066;28;20255;-68
2023/11/21 06:33:03;;;;;;;4.57;1.43;;;7.60;99.90;;;;;;5060433;28;20703;-68
2023/11/21 06:35:33;;;;;;;5.27;1.80;;;7.50;99.90;;;;;;5061234;28;20220;-68
2023/11/21 06:38:00;;;;;;;2.33;1.80;;;7.50;99.90;;;;;;5072819;28;20206;-68
2023/11/21 06:40:27;;;;;;;2.93;1.07;;;7.50;99.90;;;;;;5073828;28;20629;-68
2023/11/21 06:42:55;;;;;;;7.40;1.27;;;7.50;99.90;;;;;;5071392;28;20603;-68
2023/11/21 06:45:22;;;;;;;0.97;0.87;;;7.60;99.90;;;;;;5061552;28;20196;-68
2023/11/21 06:47:49;;;;;;;5.03;1.43;;;7.50;99.90;;;;;;5062772;28;20679;-68
2023/11/21 06:50:17;;;;;;;3.53;0.90;;;7.50;99.90;;;;;;5073391;28;20203;-68
2023/11/21 06:52:44;;;;;;;4.73;1.97;;;7.50;99.90;;;;;;5071329;28;20220;-67
2023/11/21 06:55:11;;;;;;;1.60;1.40;;;7.50;99.90;;;;;;5061242;28;20703;-68
2023/11/21 06:57:38;;;;;;;4.67;1.87;;;7.50;99.90;;;;;;5057537;28;20571;-68
2023/11/21 07:00:08;;;;;;;1.77;1.67;;;7.50;99.90;;;;;;5069709;28;20226;-68
2023/11/21 07:02:35;;;;;;;2.30;2.10;;;7.50;99.90;;;;;;5072816;28;20222;-68
2023/11/21 07:05:02;;;;;;;2.60;1.57;;;7.50;99.90;;;;;;5067643;28;20200;-68
2023/11/21 07:07:30;;;;;;;2.47;1.60;;;7.60;99.90;;;;;;5064640;28;20284;-68
2023/11/21 07:09:57;;;;;;;3.08;1.65;;;7.60;99.90;;;;;;5062890;28;20446;-68
2023/11/21 07:12:25;;;;;;;1.40;1.30;;;7.60;99.90;;;;;;5072080;28;20217;-68
2023/11/21 07:14:53;;;;;;;3.63;1.17;;;7.60;99.90;;;;;;5071694;28;20248;-68
2023/11/21 07:17:23;;;;;;;5.13;1.60;;;7.60;99.90;;;;;;5060641;28;20231;-68
2023/11/21 07:19:50;;;;;;;8.20;2.13;;;7.60;99.90;;;;;;5070743;28;20202;-67
2023/11/21 07:22:21;;;;;;;3.23;2.07;;;7.60;99.90;;;;;;5071854;28;20200;-67
2023/11/21 07:24:50;;;;;;;5.90;2.67;;;7.60;99.90;;;;;;5072495;28;20203;-68
2023/11/21 07:27:17;;;;;;;2.10;1.90;;;7.60;99.90;;;;;;5071814;28;20623;-68
2023/11/21 07:29:44;;;;;;;4.07;2.13;;;7.50;99.90;;;;;;5069945;28;20207;-68
2023/11/21 07:32:13;;;;;;;3.43;2.30;;;7.50;99.90;;;;;;5070671;28;20199;-68
2023/11/21 07:34:42;;;;;;;3.93;2.83;;;7.60;99.90;;;;;;5070433;28;20207;-69
2023/11/21 07:37:09;;;;;;;7.03;2.77;;;7.60;99.90;;;;;;5070368;28;20227;-68
2023/11/21 07:39:36;;;;;;;3.90;3.50;;;7.70;99.90;;;;;;5070574;28;20224;-68
2023/11/21 07:42:04;;;;;;;5.00;3.30;;;7.70;99.90;;;;;;5071200;28;20200;-68
2023/11/21 07:44:31;;;;;;;5.17;3.50;;;7.70;99.90;;;;;;5060482;28;20524;-65
2023/11/21 07:46:58;;;;;;;6.63;4.00;;;7.70;99.90;;;;;;5051710;28;20661;-66
2023/11/21 07:49:26;;;;;;;4.47;3.60;;;7.80;99.90;;;;;;5055295;28;20204;-66
2023/11/21 07:51:54;;;;;;;3.23;2.83;;;7.80;99.90;;;;;;5066830;28;20602;-66
2023/11/21 07:54:22;;;;;;;2.90;2.63;;;7.80;99.90;;;;;;5062652;28;20268;-65
2023/11/21 07:56:49;;;;;;;4.93;2.73;;;7.80;99.90;;;;;;5061816;28;20262;-65
2023/11/21 07:59:17;;;;;;;4.43;3.43;;;7.90;99.90;;;;;;5063613;28;20199;-65
2023/11/21 08:01:45;;;;;;;4.87;2.93;;;7.90;99.90;;;;;;5071366;28;20667;-65
2023/11/21 08:04:12;;;;;;;5.50;3.30;;;7.90;99.90;;;;;;5067013;28;20261;-61
2023/11/21 08:06:41;;;;;;;8.63;3.80;;;8.00;99.90;;;;;;5068189;28;20221;-62
2023/11/21 08:09:11;;;;;;;6.90;3.60;;;8.00;99.90;;;;;;5071994;28;20199;-62
2023/11/21 08:11:38;;;;;;;6.27;2.67;;;8.00;99.90;;;;;;5070269;28;20206;-62
2023/11/21 08:14:06;;;;;;;4.23;2.67;;;8.10;99.90;;;;;;5061881;28;20730;-63
2023/11/21 08:16:41;;;;;;;8.07;2.70;;;8.10;99.90;;;;;;5063197;28;20219;-63
2023/11/21 08:19:09;;;;;;;3.93;2.03;;;8.00;99.90;;;;;;5071679;28;20209;-63
2023/11/21 08:21:40;;;;;;;4.23;3.10;;;8.00;99.90;;;;;;5071813;28;20196;-63
2023/11/21 08:24:10;;;;;;;4.40;3.30;;;8.00;99.90;;;;;;5071989;28;20688;-63
2023/11/21 08:26:40;;;;;;;4.70;2.40;;;8.10;99.90;;;;;;5070999;28;20751;-63
2023/11/21 08:29:08;;;;;;;4.87;2.50;;;8.10;99.90;;;;;;5062203;28;20556;-63
2023/11/21 08:31:39;;;;;;;5.93;2.20;;;8.10;99.90;;;;;;5067335;28;20652;-67
2023/11/21 08:34:06;;;;;;;4.60;2.70;;;8.20;99.90;;;;;;5061694;28;20232;-66
2023/11/21 08:36:32;;;;;;;6.43;3.17;;;8.20;99.90;;;;;;5069776;28;20221;-66
2023/11/21 08:38:59;;;;;;;6.73;3.07;;;8.20;99.90;;;;;;5070390;28;20652;-66
2023/11/21 08:41:30;;;;;;;4.00;2.57;;;8.20;99.90;;;;;;5063068;28;20282;-66
2023/11/21 08:43:58;;;;;;;3.43;2.53;;;8.20;99.90;;;;;;5069661;28;20219;-66
2023/11/21 08:46:25;;;;;;;7.17;3.27;;;8.20;99.90;;;;;;5070923;28;20216;-66
2023/11/21 08:48:53;;;;;;;4.93;3.20;;;8.20;99.90;;;;;;5069384;28;20643;-66
2023/11/21 08:51:20;;;;;;;7.37;3.27;;;8.20;99.90;;;;;;5051304;28;20342;-66
2023/11/21 08:53:47;;;;;;;4.67;3.10;;;8.30;99.90;;;;;;5062642;28;20306;-67
2023/11/21 08:56:15;;;;;;;5.83;2.40;;;8.30;99.90;;;;;;5066207;28;20221;-66
2023/11/21 08:58:43;;;;;;;4.50;2.87;;;8.30;99.90;;;;;;5068880;28;20208;-66
2023/11/21 09:01:10;;;;;;;3.50;2.47;;;8.40;99.90;;;;;;5051289;28;20204;-66
2023/11/21 09:03:37;;;;;;;6.53;2.33;;;8.40;99.90;;;;;;5065448;28;20223;-66
2023/11/21 09:06:05;;;;;;;3.43;3.00;;;8.50;99.90;;;;;;5070753;28;20200;-66
2023/11/21 09:08:32;;;;;;;7.00;2.93;;;8.60;99.90;;;;;;5070515;28;20289;-66
2023/11/21 09:10:59;;;;;;;8.90;3.43;;;8.70;99.90;;;;;;5060387;28;20210;-66
2023/11/21 09:13:26;;;;;;;4.57;3.37;;;8.70;99.90;;;;;;5065669;28;20219;-66
2023/11/21 09:15:54;;;;;;;2.60;2.40;;;8.70;99.90;;;;;;5068896;28;20273;-66
2023/11/21 09:18:21;;;;;;;7.80;2.93;;;8.80;99.90;;;;;;5051134;28;20257;-66
2023/11/21 09:20:48;;;;;;;6.60;2.93;;;8.90;99.90;;;;;;5065879;28;20256;-66
2023/11/21 09:23:15;;;;;;;3.93;2.43;;;8.90;99.90;;;;;;5063129;28;20220;-66
2023/11/21 09:25:45;;;;;;;6.97;2.97;;;9.10;99.90;;;;;;5070659;28;20207;-66
2023/11/21 09:28:13;;;;;;;3.80;2.53;;;9.30;99.90;;;;;;5071256;28;20199;-66
2023/11/21 09:30:39;;;;;;;4.17;2.77;;;9.40;99.90;;;;;;5069912;28;20618;-67
2023/11/21 09:33:10;;;;;;;4.40;2.50;;;9.50;99.90;;;;;;5061376;28;20776;-67
2023/11/21 09:35:38;;;;;;;3.77;2.40;;;9.60;99.90;;;;;;5068098;28;20211;-66
2023/11/21 09:38:09;;;;;;;6.00;2.13;;;9.70;99.90;;;;;;5068731;28;20197;-66
2023/11/21 09:40:37;;;;;;;5.70;2.90;;;9.80;99.90;;;;;;5070939;28;20689;-66
2023/11/21 09:43:08;;;;;;;1.63;1.30;;;9.90;99.90;;;;;;5070783;28;20223;-66
2023/11/21 09:45:36;;;;;;;2.30;1.63;;;9.90;99.90;;;;;;5070494;28;20571;-66
2023/11/21 09:48:05;;;;;;;1.80;0.80;;;10.10;99.90;;;;;;5074876;28;20264;-66
2023/11/21 09:50:34;;;;;;;1.60;0.80;;;10.20;99.90;;;;;;5066682;28;20200;-66
2023/11/21 09:53:13;;;;;;;1.67;0.87;;;10.20;99.90;;;;;;5073188;28;20270;-66
2023/11/21 09:55:43;;;;;;;2.23;1.10;;;10.30;99.90;;;;;;5070666;28;20199;-66
2023/11/21 09:58:12;;;;;;;2.47;1.33;;;10.40;99.90;;;;;;5071231;28;20236;-66
2023/11/21 10:00:42;;;;;;;7.37;1.33;;;10.40;99.90;;;;;;5074555;28;20240;-66
2023/11/21 10:03:09;;;;;;;4.33;1.63;;;10.40;99.90;;;;;;5069963;28;20273;-66
2023/11/21 10:05:38;;;;;;;2.53;1.23;;;10.30;99.90;;;;;;5065016;28;20201;-66
2023/11/21 10:08:09;;;;;;;3.53;1.27;;;10.10;99.90;;;;;;5074453;28;20195;-66
2023/11/21 10:10:37;;;;;;;2.97;1.60;;;9.90;99.90;;;;;;5074493;28;20215;-66
2023/11/21 10:13:07;;;;;;;1.90;1.53;;;9.90;99.90;;;;;;5073523;28;20680;-66
2023/11/21 10:15:35;;;;;;;5.70;1.60;;;9.90;99.90;;;;;;5074153;28;20215;-66
2023/11/21 10:18:05;;;;;;;1.47;1.30;;;9.80;99.90;;;;;;5070935;28;20298;-66
2023/11/21 10:20:34;;;;;;;2.70;1.52;;;9.60;99.90;;;;;;5072043;28;20430;-64
2023/11/21 10:23:03;;;;;;;4.90;1.67;;;9.40;99.90;;;;;;5072550;28;20223;-62
2023/11/21 10:25:31;;;;;;;3.87;1.23;;;9.50;99.90;;;;;;5071757;28;20261;-60
2023/11/21 10:28:01;;;;;;;1.97;1.43;;;9.40;99.90;;;;;;5071983;28;20204;-62
2023/11/21 10:30:36;;;;;;;3.80;0.97;;;9.40;99.90;;;;;;5073855;28;20240;-61
2023/11/21 10:33:04;;;;;;;2.87;1.00;;;9.40;99.90;;;;;;5069788;28;20293;-64
2023/11/21 10:35:46;;;;;;;1.70;0.90;;;9.40;99.90;;;;;;5066786;28;20245;-62
2023/11/21 10:38:15;;;;;;;1.47;0.90;;;9.40;99.90;;;;;;5066683;28;20192;-62
2023/11/21 10:40:44;;;;;;;2.20;0.87;;;9.40;99.90;;;;;;5073979;28;20209;-63
2023/11/21 10:43:12;;;;;;;4.03;1.07;;;9.40;99.90;;;;;;5073812;28;20227;-61
2023/11/21 10:45:40;;;;;;;0.97;0.87;;;9.30;99.90;;;;;;5071705;28;20203;-62
2023/11/21 10:48:08;;;;;;;1.07;1.07;;;9.40;99.90;;;;;;5072683;28;20197;-62
2023/11/21 10:50:36;;;;;;;4.00;1.23;;;9.40;99.90;;;;;;5073840;28;20236;-63
2023/11/21 10:53:04;;;;;;;0.90;0.83;;;9.40;99.90;;;;;;5072630;28;20227;-64
2023/11/21 10:55:35;;;;;;;0.63;0.60;;;9.50;99.90;;;;;;5071494;28;20278;-61
2023/11/21 10:58:04;;;;;;;2.53;0.80;;;9.60;99.90;;;;;;5070521;28;21446;-61
2023/11/21 11:00:33;;;;;;;1.13;0.30;;;9.60;99.90;;;;;;5072365;28;20199;-61
2023/11/21 11:03:01;;;;;;;1.20;0.63;;;9.60;99.90;;;;;;5071996;28;20235;-61
2023/11/21 11:05:29;;;;;;;0.83;0.60;;;9.70;99.90;;;;;;5073137;28;20230;-61
2023/11/21 11:08:03;;;;;;;0.93;0.40;;;9.70;99.90;;;;;;5073504;28;20228;-61
2023/11/21 11:10:30;;;;;;;1.87;0.40;;;9.70;99.90;;;;;;5071256;28;20199;-61
2023/11/21 11:12:59;;;;;;;2.10;0.70;;;9.70;99.90;;;;;;5072896;28;20229;-61
2023/11/21 11:15:27;;;;;;;1.70;0.40;;;9.80;99.90;;;;;;5063435;28;20621;-61
2023/11/21 11:17:57;;;;;;;0.67;0.40;;;9.80;99.90;;;;;;5072976;28;20219;-60
2023/11/21 11:20:26;;;;;;;1.70;0.60;;;9.80;99.90;;;;;;5073148;28;20232;-61
2023/11/21 11:23:09;;;;;;;0.40;0.40;;;9.80;99.90;;;;;;5071230;28;20276;-63
2023/11/21 11:25:48;;;;;;;1.03;0.70;;;9.80;99.90;;;;;;5071576;28;20196;-63
2023/11/21 11:28:21;;;;;;;0.63;0.37;;;9.80;99.90;;;;;;5057130;28;20618;-60
2023/11/21 11:31:03;;;;;;;2.00;0.60;;;9.80;99.90;;;;;;5055276;28;20205;-60
2023/11/21 11:33:39;;;;;;;0.70;0.60;;;9.80;99.90;;;;;;5055902;28;20736;-60
2023/11/21 11:36:11;;;;;;;0.53;0.50;;;9.70;99.90;;;;;;5071824;28;20744;-60
2023/11/21 11:38:38;;;;;;;0.40;0.40;;;9.80;99.90;;;;;;5072738;28;20235;-60
2023/11/21 11:41:09;;;;;;;2.00;0.43;;;9.80;99.90;;;;;;5072465;28;20199;-60
2023/11/21 11:43:43;;;;;;;0.83;0.40;;;9.90;99.90;;;;;;5064178;28;20255;-60
2023/11/21 11:46:13;;;;;;;1.63;1.50;;;10.00;99.90;;;;;;5060131;28;20192;-60
2023/11/21 11:48:40;;;;;;;1.63;0.80;;;9.90;99.90;;;;;;5064368;28;20210;-60
2023/11/21 11:51:11;;;;;;;1.43;1.37;;;9.90;99.90;;;;;;5054269;28;20269;-62
2023/11/21 11:53:41;;;;;;;1.33;0.20;;;9.80;99.90;;;;;;5072358;28;20219;-62
2023/11/21 11:56:26;;;;;;;1.13;0.20;;;9.80;99.90;;;;;;5062796;28;20200;-61
2023/11/21 11:58:56;;;;;;;0.67;0.20;;;9.70;99.90;;;;;;5069895;28;20203;-61
2023/11/21 12:01:25;;;;;;;0.50;0.50;;;9.60;99.90;;;;;;5072810;28;20257;-61
2023/11/21 12:04:34;;;;;;;0.20;0.20;;;9.60;99.90;;;;;;5070623;28;20281;-62
2023/11/21 12:07:03;;;;;;;0.47;0.33;;;9.50;99.90;;;;;;5069879;28;20679;-62
2023/11/21 12:09:32;;;;;;;0.30;0.30;;;9.50;99.90;;;;;;5071414;28;20286;-62
2023/11/21 12:11:59;;;;;;;0.30;0.30;;;9.40;99.90;;;;;;5071436;28;20211;-60
2023/11/21 12:14:28;;;;;;;2.60;0.93;;;9.40;99.90;;;;;;5072134;28;20256;-59
2023/11/21 12:16:56;;;;;;;0.70;0.50;;;9.40;99.90;;;;;;5070524;28;20659;-60
2023/11/21 12:19:23;;;;;;;0.40;0.40;;;9.50;99.90;;;;;;5067320;28;20222;-60
2023/11/21 12:21:52;;;;;;;0.20;0.20;;;9.50;99.90;;;;;;5062663;28;20245;-61
2023/11/21 12:24:19;;;;;;;0.30;0.20;;;9.70;99.90;;;;;;5064365;28;20227;-62
2023/11/21 12:26:46;;;;;;;0.40;0.40;;;9.80;99.90;;;;;;5067538;28;20201;-61
2023/11/21 12:29:13;;;;;;;0.77;0.20;;;9.80;99.90;;;;;;5051379;28;20196;-60
2023/11/21 12:31:43;;;;;;;1.10;0.50;;;9.90;99.90;;;;;;5051517;28;20205;-62
2023/11/21 12:34:11;;;;;;;0.37;0.37;;;10.00;99.90;;;;;;5071727;28;20234;-61
2023/11/21 12:36:39;;;;;;;0.60;0.60;;;10.10;99.90;;;;;;5070982;28;20290;-60
2023/11/21 12:39:10;;;;;;;1.63;0.70;;;10.20;99.90;;;;;;5066496;28;20584;-63
2023/11/21 12:41:39;;;;;;;0.50;0.50;;;10.30;99.90;;;;;;5065296;28;20210;-62
2023/11/21 12:44:15;;;;;;;1.43;0.53;;;10.30;99.90;;;;;;5070219;28;20265;-60
2023/11/21 12:46:46;;;;;;;1.13;0.40;;;10.30;99.90;;;;;;5063660;28;20311;-62
2023/11/21 12:49:17;;;;;;;1.23;0.57;;;10.40;99.90;;;;;;5062763;28;20213;-62
2023/11/21 12:51:45;;;;;;;1.60;0.70;;;10.30;99.90;;;;;;5069893;28;20206;-62
2023/11/21 12:54:13;;;;;;;3.17;0.67;;;10.10;99.90;;;;;;5066733;28;20243;-63
2023/11/21 12:56:40;;;;;;;0.37;0.37;;;10.00;99.90;;;;;;5069162;28;20207;-64
2023/11/21 12:59:07;;;;;;;0.40;0.40;;;10.00;99.90;;;;;;5069858;28;20200;-62
2023/11/21 13:01:39;;;;;;;1.70;0.93;;;9.90;99.90;;;;;;5068965;28;20197;-63